Terminal Aerodrome Forecast
Issued by NWS

Home | Current Version | Previous Version | Text Only | Print | Product List | Glossary On
Versions: 1 2 3 4 5 6 7 8 9 10 11 12 13 14 15 16 17 18 19 20 21
000
FTUS44 KMAF 270500
TAFFST
TAF
KFST 270532Z 2706/2806 31008KT P6SM SCT100 OVC150
     FM271200 36007KT 6SM BR BKN020
      TEMPO 2718/2722 BKN015=

USA.gov is the U.S. government's official web portal to all federal, state and local government web resources and services.